sensor_id;sensor_type;location;lat;lon;timestamp;temperature;humidity
17887;DHT22;9069;52.044;7.472;2023-07-29T00:01:13;23.50;97.70
17887;DHT22;9069;52.044;7.472;2023-07-29T00:03:39;23.50;97.70
17887;DHT22;9069;52.044;7.472;2023-07-29T00:06:08;23.50;97.70
17887;DHT22;9069;52.044;7.472;2023-07-29T00:08:35;23.50;97.60
17887;DHT22;9069;52.044;7.472;2023-07-29T00:11:02;23.50;97.60
17887;DHT22;9069;52.044;7.472;2023-07-29T00:13:29;23.50;97.60
17887;DHT22;9069;52.044;7.472;2023-07-29T00:15:55;23.50;97.60
17887;DHT22;9069;52.044;7.472;2023-07-29T00:18:22;23.50;97.70
17887;DHT22;9069;52.044;7.472;2023-07-29T00:20:50;23.50;97.60
17887;DHT22;9069;52.044;7.472;2023-07-29T00:23:17;23.50;97.60
17887;DHT22;9069;52.044;7.472;2023-07-29T00:25:45;23.50;97.60
17887;DHT22;9069;52.044;7.472;2023-07-29T00:28:12;23.50;97.60
17887;DHT22;9069;52.044;7.472;2023-07-29T00:30:39;23.40;97.60
17887;DHT22;9069;52.044;7.472;2023-07-29T00:33:06;23.40;97.60
17887;DHT22;9069;52.044;7.472;2023-07-29T00:35:34;23.40;97.60
17887;DHT22;9069;52.044;7.472;2023-07-29T00:38:00;23.40;97.60
17887;DHT22;9069;52.044;7.472;2023-07-29T00:40:28;23.40;97.60
17887;DHT22;9069;52.044;7.472;2023-07-29T00:42:55;23.30;97.50
17887;DHT22;9069;52.044;7.472;2023-07-29T00:45:24;23.30;97.50
17887;DHT22;9069;52.044;7.472;2023-07-29T00:47:51;23.30;97.60
17887;DHT22;9069;52.044;7.472;2023-07-29T00:50:18;23.30;97.60
17887;DHT22;9069;52.044;7.472;2023-07-29T00:52:45;23.30;97.60
17887;DHT22;9069;52.044;7.472;2023-07-29T00:55:12;23.20;97.60
17887;DHT22;9069;52.044;7.472;2023-07-29T00:57:39;23.20;97.60
17887;DHT22;9069;52.044;7.472;2023-07-29T01:00:07;23.20;97.60
17887;DHT22;9069;52.044;7.472;2023-07-29T01:02:35;23.10;97.40
17887;DHT22;9069;52.044;7.472;2023-07-29T01:05:02;23.10;97.70
17887;DHT22;9069;52.044;7.472;2023-07-29T01:08:06;23.10;97.70
17887;DHT22;9069;52.044;7.472;2023-07-29T01:10:54;23.10;98.00
17887;DHT22;9069;52.044;7.472;2023-07-29T01:13:42;23.00;97.70
17887;DHT22;9069;52.044;7.472;2023-07-29T01:16:23;23.00;98.00
17887;DHT22;9069;52.044;7.472;2023-07-29T01:18:54;23.00;97.90
17887;DHT22;9069;52.044;7.472;2023-07-29T01:21:21;22.90;97.80
17887;DHT22;9069;52.044;7.472;2023-07-29T01:23:52;23.20;99.90
17887;DHT22;9069;52.044;7.472;2023-07-29T01:26:20;22.90;98.00
17887;DHT22;9069;52.044;7.472;2023-07-29T01:28:46;22.80;97.90
17887;DHT22;9069;52.044;7.472;2023-07-29T01:31:23;22.90;98.00
17887;DHT22;9069;52.044;7.472;2023-07-29T01:34:32;22.70;99.90
17887;DHT22;9069;52.044;7.472;2023-07-29T01:37:02;22.80;98.20
17887;DHT22;9069;52.044;7.472;2023-07-29T01:39:34;22.90;98.00
17887;DHT22;9069;52.044;7.472;2023-07-29T01:42:03;22.80;98.20
17887;DHT22;9069;52.044;7.472;2023-07-29T01:44:30;22.80;98.30
17887;DHT22;9069;52.044;7.472;2023-07-29T01:46:57;22.70;98.40
17887;DHT22;9069;52.044;7.472;2023-07-29T01:49:24;22.70;98.50
17887;DHT22;9069;52.044;7.472;2023-07-29T01:51:51;22.70;98.60
17887;DHT22;9069;52.044;7.472;2023-07-29T01:54:17;22.70;98.60
17887;DHT22;9069;52.044;7.472;2023-07-29T01:56:44;22.70;98.70
17887;DHT22;9069;52.044;7.472;2023-07-29T01:59:11;22.70;98.80
17887;DHT22;9069;52.044;7.472;2023-07-29T02:01:38;22.70;98.90
17887;DHT22;9069;52.044;7.472;2023-07-29T02:04:05;22.70;98.90
17887;DHT22;9069;52.044;7.472;2023-07-29T02:06:32;22.80;99.00
17887;DHT22;9069;52.044;7.472;2023-07-29T02:08:58;22.70;99.00
17887;DHT22;9069;52.044;7.472;2023-07-29T02:11:25;22.70;99.10
17887;DHT22;9069;52.044;7.472;2023-07-29T02:13:55;22.90;99.20
17887;DHT22;9069;52.044;7.472;2023-07-29T02:16:22;22.70;99.20
17887;DHT22;9069;52.044;7.472;2023-07-29T02:18:50;22.80;99.20
17887;DHT22;9069;52.044;7.472;2023-07-29T02:21:20;22.80;99.20
17887;DHT22;9069;52.044;7.472;2023-07-29T02:23:47;22.80;99.30
17887;DHT22;9069;52.044;7.472;2023-07-29T02:26:14;22.80;99.30
17887;DHT22;9069;52.044;7.472;2023-07-29T02:28:40;22.80;99.30
17887;DHT22;9069;52.044;7.472;2023-07-29T02:33:41;22.80;99.40
17887;DHT22;9069;52.044;7.472;2023-07-29T02:36:08;22.80;99.30
17887;DHT22;9069;52.044;7.472;2023-07-29T02:38:35;22.80;99.30
17887;DHT22;9069;52.044;7.472;2023-07-29T02:41:02;22.90;99.30
17887;DHT22;9069;52.044;7.472;2023-07-29T02:43:28;22.80;99.30
17887;DHT22;9069;52.044;7.472;2023-07-29T02:45:55;22.90;99.60
17887;DHT22;9069;52.044;7.472;2023-07-29T02:48:22;23.00;99.30
17887;DHT22;9069;52.044;7.472;2023-07-29T02:50:49;22.90;99.30
17887;DHT22;9069;52.044;7.472;2023-07-29T02:53:16;22.90;99.60
17887;DHT22;9069;52.044;7.472;2023-07-29T02:55:42;22.90;99.30
17887;DHT22;9069;52.044;7.472;2023-07-29T02:58:09;22.90;99.30
17887;DHT22;9069;52.044;7.472;2023-07-29T03:00:36;22.90;99.30
17887;DHT22;9069;52.044;7.472;2023-07-29T03:03:03;22.90;99.30
17887;DHT22;9069;52.044;7.472;2023-07-29T03:05:30;22.90;99.30
17887;DHT22;9069;52.044;7.472;2023-07-29T03:07:58;22.90;99.30
17887;DHT22;9069;52.044;7.472;2023-07-29T03:10:25;22.90;99.30
17887;DHT22;9069;52.044;7.472;2023-07-29T03:12:54;22.90;99.70
17887;DHT22;9069;52.044;7.472;2023-07-29T03:15:25;22.90;99.50
17887;DHT22;9069;52.044;7.472;2023-07-29T03:17:52;23.00;99.50
17887;DHT22;9069;52.044;7.472;2023-07-29T03:20:20;22.90;99.40
17887;DHT22;9069;52.044;7.472;2023-07-29T03:22:46;22.90;99.40
17887;DHT22;9069;52.044;7.472;2023-07-29T03:25:13;22.90;99.40
17887;DHT22;9069;52.044;7.472;2023-07-29T03:27:40;22.90;99.50
17887;DHT22;9069;52.044;7.472;2023-07-29T03:30:07;22.90;99.50
17887;DHT22;9069;52.044;7.472;2023-07-29T03:32:34;22.90;99.50
17887;DHT22;9069;52.044;7.472;2023-07-29T03:35:01;22.90;99.50
17887;DHT22;9069;52.044;7.472;2023-07-29T03:37:28;22.90;99.50
17887;DHT22;9069;52.044;7.472;2023-07-29T03:39:54;22.90;99.60
17887;DHT22;9069;52.044;7.472;2023-07-29T03:42:21;22.90;99.80
17887;DHT22;9069;52.044;7.472;2023-07-29T03:44:48;23.00;99.60
17887;DHT22;9069;52.044;7.472;2023-07-29T03:47:15;23.00;99.70
17887;DHT22;9069;52.044;7.472;2023-07-29T03:49:43;23.00;99.70
17887;DHT22;9069;52.044;7.472;2023-07-29T03:52:10;23.00;99.70
17887;DHT22;9069;52.044;7.472;2023-07-29T03:54:37;23.00;99.60
17887;DHT22;9069;52.044;7.472;2023-07-29T03:57:04;23.00;99.60
17887;DHT22;9069;52.044;7.472;2023-07-29T03:59:31;23.00;99.60
17887;DHT22;9069;52.044;7.472;2023-07-29T04:01:58;23.00;99.60
17887;DHT22;9069;52.044;7.472;2023-07-29T04:04:25;23.00;99.50
17887;DHT22;9069;52.044;7.472;2023-07-29T04:06:53;23.00;99.50
17887;DHT22;9069;52.044;7.472;2023-07-29T04:09:19;23.00;99.50
17887;DHT22;9069;52.044;7.472;2023-07-29T04:11:46;23.10;99.60
17887;DHT22;9069;52.044;7.472;2023-07-29T04:14:13;23.00;99.50
17887;DHT22;9069;52.044;7.472;2023-07-29T04:16:40;23.00;99.60
17887;DHT22;9069;52.044;7.472;2023-07-29T04:19:07;23.00;99.60
17887;DHT22;9069;52.044;7.472;2023-07-29T04:21:33;23.00;99.50
17887;DHT22;9069;52.044;7.472;2023-07-29T04:24:00;23.00;99.50
17887;DHT22;9069;52.044;7.472;2023-07-29T04:26:27;23.00;99.60
17887;DHT22;9069;52.044;7.472;2023-07-29T04:28:54;23.00;99.60
17887;DHT22;9069;52.044;7.472;2023-07-29T04:31:21;23.00;99.60
17887;DHT22;9069;52.044;7.472;2023-07-29T04:33:48;23.00;99.70
17887;DHT22;9069;52.044;7.472;2023-07-29T04:36:16;23.00;99.70
17887;DHT22;9069;52.044;7.472;2023-07-29T04:38:44;23.00;99.70
17887;DHT22;9069;52.044;7.472;2023-07-29T04:41:11;23.00;99.70
17887;DHT22;9069;52.044;7.472;2023-07-29T04:43:37;23.00;99.70
17887;DHT22;9069;52.044;7.472;2023-07-29T04:46:08;23.00;99.80
17887;DHT22;9069;52.044;7.472;2023-07-29T04:48:37;23.00;99.90
17887;DHT22;9069;52.044;7.472;2023-07-29T04:51:04;23.00;99.80
17887;DHT22;9069;52.044;7.472;2023-07-29T04:53:31;23.00;99.80
17887;DHT22;9069;52.044;7.472;2023-07-29T04:55:58;23.00;99.80
17887;DHT22;9069;52.044;7.472;2023-07-29T04:58:25;23.10;99.90
17887;DHT22;9069;52.044;7.472;2023-07-29T05:00:51;23.00;99.90
17887;DHT22;9069;52.044;7.472;2023-07-29T05:03:18;23.10;99.90
17887;DHT22;9069;52.044;7.472;2023-07-29T05:05:45;23.10;99.90
17887;DHT22;9069;52.044;7.472;2023-07-29T05:08:12;23.10;99.90
17887;DHT22;9069;52.044;7.472;2023-07-29T05:10:39;23.10;99.90
17887;DHT22;9069;52.044;7.472;2023-07-29T05:13:07;23.30;99.90
17887;DHT22;9069;52.044;7.472;2023-07-29T05:15:33;23.20;99.90
17887;DHT22;9069;52.044;7.472;2023-07-29T05:18:00;23.20;99.90
17887;DHT22;9069;52.044;7.472;2023-07-29T05:20:27;23.20;99.90
17887;DHT22;9069;52.044;7.472;2023-07-29T05:22:54;23.20;99.90
17887;DHT22;9069;52.044;7.472;2023-07-29T05:25:20;23.20;99.90
17887;DHT22;9069;52.044;7.472;2023-07-29T05:27:47;23.30;99.90
17887;DHT22;9069;52.044;7.472;2023-07-29T05:30:14;23.30;99.90
17887;DHT22;9069;52.044;7.472;2023-07-29T05:32:41;23.30;99.90
17887;DHT22;9069;52.044;7.472;2023-07-29T05:35:08;23.30;99.90
17887;DHT22;9069;52.044;7.472;2023-07-29T05:37:38;23.30;99.90
17887;DHT22;9069;52.044;7.472;2023-07-29T05:40:07;23.40;99.90
17887;DHT22;9069;52.044;7.472;2023-07-29T05:42:35;23.40;99.90
17887;DHT22;9069;52.044;7.472;2023-07-29T05:45:02;23.40;99.90
17887;DHT22;9069;52.044;7.472;2023-07-29T05:47:29;23.40;99.90
17887;DHT22;9069;52.044;7.472;2023-07-29T05:49:57;23.40;99.90
17887;DHT22;9069;52.044;7.472;2023-07-29T05:52:26;23.40;99.90
17887;DHT22;9069;52.044;7.472;2023-07-29T05:54:53;23.50;99.90
17887;DHT22;9069;52.044;7.472;2023-07-29T05:57:20;23.50;99.90
17887;DHT22;9069;52.044;7.472;2023-07-29T05:59:47;23.50;99.90
17887;DHT22;9069;52.044;7.472;2023-07-29T06:02:13;23.60;99.90
17887;DHT22;9069;52.044;7.472;2023-07-29T06:04:40;23.70;99.50
17887;DHT22;9069;52.044;7.472;2023-07-29T06:07:07;23.70;99.80
17887;DHT22;9069;52.044;7.472;2023-07-29T06:09:34;23.70;99.80
17887;DHT22;9069;52.044;7.472;2023-07-29T06:12:02;23.70;99.70
17887;DHT22;9069;52.044;7.472;2023-07-29T06:14:29;23.80;99.60
17887;DHT22;9069;52.044;7.472;2023-07-29T06:16:55;23.80;99.40
17887;DHT22;9069;52.044;7.472;2023-07-29T06:19:22;23.90;99.30
17887;DHT22;9069;52.044;7.472;2023-07-29T06:21:50;23.80;99.20
17887;DHT22;9069;52.044;7.472;2023-07-29T06:24:17;23.90;99.10
17887;DHT22;9069;52.044;7.472;2023-07-29T06:26:43;23.90;98.90
17887;DHT22;9069;52.044;7.472;2023-07-29T06:29:10;23.90;98.70
17887;DHT22;9069;52.044;7.472;2023-07-29T06:31:37;23.90;98.60
17887;DHT22;9069;52.044;7.472;2023-07-29T06:34:04;23.80;98.40
17887;DHT22;9069;52.044;7.472;2023-07-29T06:36:30;23.90;97.80
17887;DHT22;9069;52.044;7.472;2023-07-29T06:38:57;23.80;97.40
17887;DHT22;9069;52.044;7.472;2023-07-29T06:41:24;23.90;97.20
17887;DHT22;9069;52.044;7.472;2023-07-29T06:43:50;23.80;97.10
17887;DHT22;9069;52.044;7.472;2023-07-29T06:46:17;23.80;97.00
17887;DHT22;9069;52.044;7.472;2023-07-29T06:48:44;23.90;96.60
17887;DHT22;9069;52.044;7.472;2023-07-29T06:51:11;23.90;96.30
17887;DHT22;9069;52.044;7.472;2023-07-29T06:53:38;23.90;96.00
17887;DHT22;9069;52.044;7.472;2023-07-29T06:56:05;23.90;95.80
17887;DHT22;9069;52.044;7.472;2023-07-29T06:58:32;24.00;95.60
17887;DHT22;9069;52.044;7.472;2023-07-29T07:00:58;24.00;95.40
17887;DHT22;9069;52.044;7.472;2023-07-29T07:03:25;24.00;95.10
17887;DHT22;9069;52.044;7.472;2023-07-29T07:05:52;24.00;95.10
17887;DHT22;9069;52.044;7.472;2023-07-29T07:08:19;24.00;94.90
17887;DHT22;9069;52.044;7.472;2023-07-29T07:10:47;24.10;94.70
17887;DHT22;9069;52.044;7.472;2023-07-29T07:13:14;24.00;94.40
17887;DHT22;9069;52.044;7.472;2023-07-29T07:15:41;24.00;94.60
17887;DHT22;9069;52.044;7.472;2023-07-29T07:18:07;24.00;94.40
17887;DHT22;9069;52.044;7.472;2023-07-29T07:20:35;24.00;94.30
17887;DHT22;9069;52.044;7.472;2023-07-29T07:23:03;24.00;94.20
17887;DHT22;9069;52.044;7.472;2023-07-29T07:25:31;24.00;94.40
17887;DHT22;9069;52.044;7.472;2023-07-29T07:27:58;24.00;94.00
17887;DHT22;9069;52.044;7.472;2023-07-29T07:30:25;24.00;94.10
17887;DHT22;9069;52.044;7.472;2023-07-29T07:32:52;24.10;94.00
17887;DHT22;9069;52.044;7.472;2023-07-29T07:35:18;24.10;94.00
17887;DHT22;9069;52.044;7.472;2023-07-29T07:37:45;24.10;94.20
17887;DHT22;9069;52.044;7.472;2023-07-29T07:40:12;24.20;94.00
17887;DHT22;9069;52.044;7.472;2023-07-29T07:42:39;24.30;93.80
17887;DHT22;9069;52.044;7.472;2023-07-29T07:45:05;24.30;93.70
17887;DHT22;9069;52.044;7.472;2023-07-29T07:47:32;24.30;93.40
17887;DHT22;9069;52.044;7.472;2023-07-29T07:49:59;24.40;93.20
17887;DHT22;9069;52.044;7.472;2023-07-29T07:52:26;24.40;93.00
17887;DHT22;9069;52.044;7.472;2023-07-29T07:54:53;24.50;92.80
17887;DHT22;9069;52.044;7.472;2023-07-29T07:57:21;24.60;92.60
17887;DHT22;9069;52.044;7.472;2023-07-29T07:59:48;24.60;92.40
17887;DHT22;9069;52.044;7.472;2023-07-29T08:02:15;24.60;92.30
17887;DHT22;9069;52.044;7.472;2023-07-29T08:04:41;24.60;92.20
17887;DHT22;9069;52.044;7.472;2023-07-29T08:07:08;24.60;92.20
17887;DHT22;9069;52.044;7.472;2023-07-29T08:09:35;24.60;92.30
17887;DHT22;9069;52.044;7.472;2023-07-29T08:12:02;24.60;92.30
17887;DHT22;9069;52.044;7.472;2023-07-29T08:14:29;24.60;92.40
17887;DHT22;9069;52.044;7.472;2023-07-29T08:16:55;24.70;92.50
17887;DHT22;9069;52.044;7.472;2023-07-29T08:19:22;24.70;92.50
17887;DHT22;9069;52.044;7.472;2023-07-29T08:21:49;24.70;92.40
17887;DHT22;9069;52.044;7.472;2023-07-29T08:24:16;24.80;92.50
17887;DHT22;9069;52.044;7.472;2023-07-29T08:26:42;24.90;92.40
17887;DHT22;9069;52.044;7.472;2023-07-29T08:29:09;25.00;92.10
17887;DHT22;9069;52.044;7.472;2023-07-29T08:31:36;25.00;91.90
17887;DHT22;9069;52.044;7.472;2023-07-29T08:34:03;25.10;91.70
17887;DHT22;9069;52.044;7.472;2023-07-29T08:36:29;25.20;91.50
17887;DHT22;9069;52.044;7.472;2023-07-29T08:38:56;25.20;91.50
17887;DHT22;9069;52.044;7.472;2023-07-29T08:41:31;25.30;91.40
17887;DHT22;9069;52.044;7.472;2023-07-29T08:46:44;25.50;91.20
17887;DHT22;9069;52.044;7.472;2023-07-29T08:49:12;25.70;92.00
17887;DHT22;9069;52.044;7.472;2023-07-29T08:51:42;26.00;92.00
17887;DHT22;9069;52.044;7.472;2023-07-29T08:54:10;26.30;92.00
17887;DHT22;9069;52.044;7.472;2023-07-29T08:56:37;26.60;92.00
17887;DHT22;9069;52.044;7.472;2023-07-29T08:59:05;27.00;91.80
17887;DHT22;9069;52.044;7.472;2023-07-29T09:01:31;27.40;91.20
17887;DHT22;9069;52.044;7.472;2023-07-29T09:03:59;27.70;91.40
17887;DHT22;9069;52.044;7.472;2023-07-29T09:06:26;28.10;90.90
17887;DHT22;9069;52.044;7.472;2023-07-29T09:08:54;28.50;90.10
17887;DHT22;9069;52.044;7.472;2023-07-29T09:11:24;28.80;86.60
17887;DHT22;9069;52.044;7.472;2023-07-29T09:13:51;29.10;84.70
17887;DHT22;9069;52.044;7.472;2023-07-29T09:16:22;29.30;82.20
17887;DHT22;9069;52.044;7.472;2023-07-29T09:18:50;29.40;78.30
17887;DHT22;9069;52.044;7.472;2023-07-29T09:21:20;29.60;78.30
17887;DHT22;9069;52.044;7.472;2023-07-29T09:23:50;29.60;77.60
17887;DHT22;9069;52.044;7.472;2023-07-29T09:26:27;29.70;77.30
17887;DHT22;9069;52.044;7.472;2023-07-29T09:28:56;29.80;76.60
17887;DHT22;9069;52.044;7.472;2023-07-29T09:31:24;30.00;77.50
17887;DHT22;9069;52.044;7.472;2023-07-29T09:34:01;30.10;76.60
17887;DHT22;9069;52.044;7.472;2023-07-29T09:36:31;30.30;73.80
17887;DHT22;9069;52.044;7.472;2023-07-29T09:38:58;30.50;74.60
17887;DHT22;9069;52.044;7.472;2023-07-29T09:41:26;30.70;75.40
17887;DHT22;9069;52.044;7.472;2023-07-29T09:44:01;31.00;74.30
17887;DHT22;9069;52.044;7.472;2023-07-29T09:46:36;31.10;70.90
17887;DHT22;9069;52.044;7.472;2023-07-29T09:49:06;31.30;71.20
17887;DHT22;9069;52.044;7.472;2023-07-29T09:51:38;31.40;71.20
17887;DHT22;9069;52.044;7.472;2023-07-29T09:54:05;31.50;68.70
17887;DHT22;9069;52.044;7.472;2023-07-29T09:56:33;31.50;68.90
17887;DHT22;9069;52.044;7.472;2023-07-29T09:59:00;31.40;67.90
17887;DHT22;9069;52.044;7.472;2023-07-29T10:01:31;31.50;67.90
17887;DHT22;9069;52.044;7.472;2023-07-29T10:03:59;31.40;68.40
17887;DHT22;9069;52.044;7.472;2023-07-29T10:06:29;31.50;69.10
17887;DHT22;9069;52.044;7.472;2023-07-29T10:08:56;31.60;67.90
17887;DHT22;9069;52.044;7.472;2023-07-29T10:11:24;31.60;67.40
17887;DHT22;9069;52.044;7.472;2023-07-29T10:13:51;31.70;66.20
17887;DHT22;9069;52.044;7.472;2023-07-29T10:16:35;31.70;65.50
17887;DHT22;9069;52.044;7.472;2023-07-29T10:19:04;31.50;65.00
17887;DHT22;9069;52.044;7.472;2023-07-29T10:21:31;31.50;64.90
17887;DHT22;9069;52.044;7.472;2023-07-29T10:24:01;31.40;64.60
17887;DHT22;9069;52.044;7.472;2023-07-29T10:26:30;31.30;63.70
17887;DHT22;9069;52.044;7.472;2023-07-29T10:28:59;31.10;64.00
17887;DHT22;9069;52.044;7.472;2023-07-29T10:31:32;31.00;64.10
17887;DHT22;9069;52.044;7.472;2023-07-29T10:33:59;30.80;64.20
17887;DHT22;9069;52.044;7.472;2023-07-29T10:36:26;30.70;64.20
17887;DHT22;9069;52.044;7.472;2023-07-29T10:38:54;30.50;64.10
17887;DHT22;9069;52.044;7.472;2023-07-29T10:41:22;30.30;64.10
17887;DHT22;9069;52.044;7.472;2023-07-29T10:43:49;30.20;64.50
17887;DHT22;9069;52.044;7.472;2023-07-29T10:46:20;30.00;64.90
17887;DHT22;9069;52.044;7.472;2023-07-29T10:51:35;29.80;65.50
17887;DHT22;9069;52.044;7.472;2023-07-29T10:54:04;29.70;65.50
17887;DHT22;9069;52.044;7.472;2023-07-29T10:56:40;29.60;66.20
17887;DHT22;9069;52.044;7.472;2023-07-29T11:01:57;29.50;67.10
17887;DHT22;9069;52.044;7.472;2023-07-29T11:04:26;29.30;67.60
17887;DHT22;9069;52.044;7.472;2023-07-29T11:09:40;29.40;68.60
17887;DHT22;9069;52.044;7.472;2023-07-29T11:12:38;29.40;68.80
17887;DHT22;9069;52.044;7.472;2023-07-29T11:15:26;29.50;68.20
17887;DHT22;9069;52.044;7.472;2023-07-29T11:17:56;29.50;68.60
17887;DHT22;9069;52.044;7.472;2023-07-29T11:20:28;29.60;68.70
17887;DHT22;9069;52.044;7.472;2023-07-29T11:22:57;29.60;68.80
17887;DHT22;9069;52.044;7.472;2023-07-29T11:25:25;29.70;68.50
17887;DHT22;9069;52.044;7.472;2023-07-29T11:27:55;29.70;68.20
17887;DHT22;9069;52.044;7.472;2023-07-29T11:30:22;29.70;68.70
17887;DHT22;9069;52.044;7.472;2023-07-29T11:32:50;29.70;68.10
17887;DHT22;9069;52.044;7.472;2023-07-29T11:35:18;29.70;67.50
17887;DHT22;9069;52.044;7.472;2023-07-29T11:37:47;29.70;67.00
17887;DHT22;9069;52.044;7.472;2023-07-29T11:40:18;29.60;67.30
17887;DHT22;9069;52.044;7.472;2023-07-29T11:42:46;29.60;67.00
17887;DHT22;9069;52.044;7.472;2023-07-29T11:45:14;29.50;67.20
17887;DHT22;9069;52.044;7.472;2023-07-29T11:47:44;29.50;66.70
17887;DHT22;9069;52.044;7.472;2023-07-29T11:50:12;29.50;66.70
17887;DHT22;9069;52.044;7.472;2023-07-29T11:52:43;29.40;66.20
17887;DHT22;9069;52.044;7.472;2023-07-29T11:55:12;29.40;65.80
17887;DHT22;9069;52.044;7.472;2023-07-29T11:57:40;29.30;65.90
17887;DHT22;9069;52.044;7.472;2023-07-29T12:00:09;29.20;66.30
17887;DHT22;9069;52.044;7.472;2023-07-29T12:02:38;29.10;66.90
17887;DHT22;9069;52.044;7.472;2023-07-29T12:05:07;29.00;66.90
17887;DHT22;9069;52.044;7.472;2023-07-29T12:07:35;28.90;66.90
17887;DHT22;9069;52.044;7.472;2023-07-29T12:10:03;28.90;67.00
17887;DHT22;9069;52.044;7.472;2023-07-29T12:12:30;28.80;67.00
17887;DHT22;9069;52.044;7.472;2023-07-29T12:14:57;28.80;67.20
17887;DHT22;9069;52.044;7.472;2023-07-29T12:17:23;28.70;67.60
17887;DHT22;9069;52.044;7.472;2023-07-29T12:19:54;28.60;68.20
17887;DHT22;9069;52.044;7.472;2023-07-29T12:22:21;28.70;68.30
17887;DHT22;9069;52.044;7.472;2023-07-29T12:24:51;28.60;68.30
17887;DHT22;9069;52.044;7.472;2023-07-29T12:27:18;28.60;68.20
17887;DHT22;9069;52.044;7.472;2023-07-29T12:29:48;28.60;68.10
17887;DHT22;9069;52.044;7.472;2023-07-29T12:32:17;28.60;68.30
17887;DHT22;9069;52.044;7.472;2023-07-29T12:34:44;28.60;68.80
17887;DHT22;9069;52.044;7.472;2023-07-29T12:37:11;28.60;69.30
17887;DHT22;9069;52.044;7.472;2023-07-29T12:39:40;28.60;69.30
17887;DHT22;9069;52.044;7.472;2023-07-29T12:42:10;28.60;68.80
17887;DHT22;9069;52.044;7.472;2023-07-29T12:44:38;28.60;69.20
17887;DHT22;9069;52.044;7.472;2023-07-29T12:47:06;28.60;68.80
17887;DHT22;9069;52.044;7.472;2023-07-29T12:49:33;28.60;69.10
17887;DHT22;9069;52.044;7.472;2023-07-29T12:52:00;28.60;69.30
17887;DHT22;9069;52.044;7.472;2023-07-29T12:54:27;28.70;69.10
17887;DHT22;9069;52.044;7.472;2023-07-29T12:56:54;28.70;68.80
17887;DHT22;9069;52.044;7.472;2023-07-29T12:59:20;28.70;68.70
17887;DHT22;9069;52.044;7.472;2023-07-29T13:01:47;28.70;68.50
17887;DHT22;9069;52.044;7.472;2023-07-29T13:04:14;28.60;68.80
17887;DHT22;9069;52.044;7.472;2023-07-29T13:06:41;28.60;69.50
17887;DHT22;9069;52.044;7.472;2023-07-29T13:09:08;28.50;70.30
17887;DHT22;9069;52.044;7.472;2023-07-29T13:11:34;28.50;71.10
17887;DHT22;9069;52.044;7.472;2023-07-29T13:14:01;28.50;71.60
17887;DHT22;9069;52.044;7.472;2023-07-29T13:16:28;28.40;71.70
17887;DHT22;9069;52.044;7.472;2023-07-29T13:18:55;28.40;72.00
17887;DHT22;9069;52.044;7.472;2023-07-29T13:21:23;28.40;71.60
17887;DHT22;9069;52.044;7.472;2023-07-29T13:23:50;28.30;71.70
17887;DHT22;9069;52.044;7.472;2023-07-29T13:26:17;28.30;71.10
17887;DHT22;9069;52.044;7.472;2023-07-29T13:28:44;28.30;71.00
17887;DHT22;9069;52.044;7.472;2023-07-29T13:31:11;28.20;70.30
17887;DHT22;9069;52.044;7.472;2023-07-29T13:33:38;28.20;70.20
17887;DHT22;9069;52.044;7.472;2023-07-29T13:36:05;28.20;70.60
17887;DHT22;9069;52.044;7.472;2023-07-29T13:38:32;28.20;71.90
17887;DHT22;9069;52.044;7.472;2023-07-29T13:40:59;28.00;72.10
17887;DHT22;9069;52.044;7.472;2023-07-29T13:43:26;27.90;71.60
17887;DHT22;9069;52.044;7.472;2023-07-29T13:45:52;27.70;71.40
17887;DHT22;9069;52.044;7.472;2023-07-29T13:48:19;27.60;72.10
17887;DHT22;9069;52.044;7.472;2023-07-29T13:50:48;27.40;73.10
17887;DHT22;9069;52.044;7.472;2023-07-29T13:53:15;27.20;73.60
17887;DHT22;9069;52.044;7.472;2023-07-29T13:55:42;27.10;74.70
17887;DHT22;9069;52.044;7.472;2023-07-29T13:58:09;27.00;75.50
17887;DHT22;9069;52.044;7.472;2023-07-29T14:00:35;27.00;76.50
17887;DHT22;9069;52.044;7.472;2023-07-29T14:03:02;26.70;77.00
17887;DHT22;9069;52.044;7.472;2023-07-29T14:05:29;26.60;77.60
17887;DHT22;9069;52.044;7.472;2023-07-29T14:07:56;26.50;78.20
17887;DHT22;9069;52.044;7.472;2023-07-29T14:10:24;26.40;79.00
17887;DHT22;9069;52.044;7.472;2023-07-29T14:12:51;26.30;79.80
17887;DHT22;9069;52.044;7.472;2023-07-29T14:15:18;26.20;80.10
17887;DHT22;9069;52.044;7.472;2023-07-29T14:17:45;26.10;80.80
17887;DHT22;9069;52.044;7.472;2023-07-29T14:20:13;25.90;81.30
17887;DHT22;9069;52.044;7.472;2023-07-29T14:22:40;25.90;82.40
17887;DHT22;9069;52.044;7.472;2023-07-29T14:25:07;25.70;83.10
17887;DHT22;9069;52.044;7.472;2023-07-29T14:27:34;25.70;84.10
17887;DHT22;9069;52.044;7.472;2023-07-29T14:30:00;25.60;85.00
17887;DHT22;9069;52.044;7.472;2023-07-29T14:32:28;25.60;86.10
17887;DHT22;9069;52.044;7.472;2023-07-29T14:34:55;25.50;86.80
17887;DHT22;9069;52.044;7.472;2023-07-29T14:37:21;25.50;87.90
17887;DHT22;9069;52.044;7.472;2023-07-29T14:39:48;25.50;89.20
17887;DHT22;9069;52.044;7.472;2023-07-29T14:42:15;25.40;89.90
17887;DHT22;9069;52.044;7.472;2023-07-29T14:44:42;25.40;90.20
17887;DHT22;9069;52.044;7.472;2023-07-29T14:47:09;25.40;90.60
17887;DHT22;9069;52.044;7.472;2023-07-29T14:49:35;25.40;90.80
17887;DHT22;9069;52.044;7.472;2023-07-29T14:52:02;25.40;90.80
17887;DHT22;9069;52.044;7.472;2023-07-29T14:54:29;25.40;91.10
17887;DHT22;9069;52.044;7.472;2023-07-29T14:56:56;25.40;91.80
17887;DHT22;9069;52.044;7.472;2023-07-29T14:59:22;25.40;91.70
17887;DHT22;9069;52.044;7.472;2023-07-29T15:01:49;25.40;91.80
17887;DHT22;9069;52.044;7.472;2023-07-29T15:04:16;25.50;92.00
17887;DHT22;9069;52.044;7.472;2023-07-29T15:06:43;25.50;91.70
17887;DHT22;9069;52.044;7.472;2023-07-29T15:09:09;25.50;91.60
17887;DHT22;9069;52.044;7.472;2023-07-29T15:11:36;25.50;91.30
17887;DHT22;9069;52.044;7.472;2023-07-29T15:14:03;25.50;91.20
17887;DHT22;9069;52.044;7.472;2023-07-29T15:16:30;25.50;90.90
17887;DHT22;9069;52.044;7.472;2023-07-29T15:18:58;25.50;90.40
17887;DHT22;9069;52.044;7.472;2023-07-29T15:21:25;25.50;90.20
17887;DHT22;9069;52.044;7.472;2023-07-29T15:23:51;25.50;90.00
17887;DHT22;9069;52.044;7.472;2023-07-29T15:26:18;25.50;89.80
17887;DHT22;9069;52.044;7.472;2023-07-29T15:28:45;25.50;89.70
17887;DHT22;9069;52.044;7.472;2023-07-29T15:31:12;25.50;89.20
17887;DHT22;9069;52.044;7.472;2023-07-29T15:33:39;25.50;88.70
17887;DHT22;9069;52.044;7.472;2023-07-29T15:36:06;25.60;88.00
17887;DHT22;9069;52.044;7.472;2023-07-29T15:38:33;25.40;87.60
17887;DHT22;9069;52.044;7.472;2023-07-29T15:41:01;25.50;87.40
17887;DHT22;9069;52.044;7.472;2023-07-29T15:43:28;25.40;87.40
17887;DHT22;9069;52.044;7.472;2023-07-29T15:45:55;25.40;88.30
17887;DHT22;9069;52.044;7.472;2023-07-29T15:48:24;25.50;88.20
17887;DHT22;9069;52.044;7.472;2023-07-29T15:50:50;25.30;88.10
17887;DHT22;9069;52.044;7.472;2023-07-29T15:53:17;25.30;87.80
17887;DHT22;9069;52.044;7.472;2023-07-29T15:55:44;25.40;88.60
17887;DHT22;9069;52.044;7.472;2023-07-29T15:58:11;25.30;89.50
17887;DHT22;9069;52.044;7.472;2023-07-29T16:00:37;25.30;88.80
17887;DHT22;9069;52.044;7.472;2023-07-29T16:03:04;25.40;89.40